Time;durP1;ratioP1;P1;durP2;ratioP2;P2;SDS_P1;SDS_P2;PMS_P1;PMS_P2;Temp;Humidity;BMP_temperature;BMP_pressure;BME280_temperature;BME280_humidity;BME280_pressure;Samples;Min_cycle;Max_cycle;Signal;HPM_P1;HPM_P2
2022/10/15 07:04:06;;;;;;;;;;;;;;;;;;13109020;22;720730;-85
2022/10/15 07:09:08;;;;;;;7.75;6.30;;;;;;;;;;13131864;22;19917;-80
2022/10/15 07:14:09;;;;;;;6.50;5.15;;;;;;;;;;13137161;22;20430;-80
2022/10/15 07:19:52;;;;;;;;;;;;;;;;;;;;;
2022/10/15 07:25:23;;;;;;;6.47;5.07;;;;;;;;;;12977044;22;20390;-81
2022/10/15 07:41:36;;;;;;;6.32;5.30;;;;;;;;;;13065649;22;20011;-82
2022/10/15 07:46:37;;;;;;;8.98;6.45;;;;;;;;;;13037624;22;20011;-82
2022/10/15 07:51:41;;;;;;;6.78;5.65;;;;;;;;;;13035729;22;20003;-82
2022/10/15 07:56:42;;;;;;;7.78;6.65;;;;;;;;;;13036998;22;20086;-81
2022/10/15 08:01:44;;;;;;;9.07;6.35;;;;;;;;;;13065076;22;20003;-81
2022/10/15 08:06:46;;;;;;;9.07;6.32;;;;;;;;;;13064841;22;20011;-82
2022/10/15 08:11:47;;;;;;;8.45;6.68;;;;;;;;;;13037964;22;20064;-81
2022/10/15 08:16:48;;;;;;;7.70;5.38;;;;;;;;;;13038566;22;20094;-81
2022/10/15 08:21:49;;;;;;;10.02;6.63;;;;;;;;;;13038867;22;20063;-80
2022/10/15 08:26:50;;;;;;;8.25;7.10;;;;;;;;;;13064290;22;20014;-81
2022/10/15 08:31:51;;;;;;;11.50;10.30;;;;;;;;;;13068975;22;19999;-81
2022/10/15 08:36:52;;;;;;;13.48;11.05;;;;;;;;;;13037980;22;20007;-80
2022/10/15 08:41:59;;;;;;;8.07;6.68;;;;;;;;;;13038970;22;20025;-81
2022/10/15 08:47:08;;;;;;;9.75;8.20;;;;;;;;;;13038211;22;20038;-81
2022/10/15 08:52:18;;;;;;;10.02;7.85;;;;;;;;;;13036073;22;20003;-81
2022/10/15 08:57:41;;;;;;;7.55;6.70;;;;;;;;;;13064910;22;20042;-81
2022/10/15 09:02:42;;;;;;;9.57;8.20;;;;;;;;;;13065524;22;20388;-81
2022/10/15 09:07:46;;;;;;;9.05;8.15;;;;;;;;;;13039803;22;20007;-80
2022/10/15 09:13:07;;;;;;;10.52;7.85;;;;;;;;;;13064177;22;20041;-81
2022/10/15 09:18:16;;;;;;;11.90;7.13;;;;;;;;;;13038035;22;20022;-81
2022/10/15 09:23:18;;;;;;;9.07;7.63;;;;;;;;;;13037497;22;20007;-81
2022/10/15 09:28:25;;;;;;;7.25;5.82;;;;;;;;;;13040912;22;20440;-81
2022/10/15 09:33:26;;;;;;;6.13;4.88;;;;;;;;;;13039901;22;20014;-81
2022/10/15 09:38:34;;;;;;;6.97;4.38;;;;;;;;;;13038138;22;20022;-81
2022/10/15 09:43:37;;;;;;;3.90;3.42;;;;;;;;;;13041369;22;20019;-81
2022/10/15 09:54:30;;;;;;;4.45;3.38;;;;;;;;;;13064325;22;20011;-81
2022/10/15 09:59:31;;;;;;;3.50;1.98;;;;;;;;;;13040581;22;19999;-82
2022/10/15 10:04:33;;;;;;;4.72;2.63;;;;;;;;;;13039514;22;20026;-82
2022/10/15 10:09:57;;;;;;;3.95;2.53;;;;;;;;;;13039052;22;20000;-82
2022/10/15 10:15:08;;;;;;;2.75;1.92;;;;;;;;;;13041798;22;20015;-80
2022/10/15 10:20:09;;;;;;;2.35;1.55;;;;;;;;;;13044261;22;20000;-81
2022/10/15 10:25:41;;;;;;;3.03;1.50;;;;;;;;;;13043239;22;20008;-81
2022/10/15 10:30:59;;;;;;;2.70;1.25;;;;;;;;;;13015745;22;20026;-83
2022/10/15 10:36:00;;;;;;;3.67;1.63;;;;;;;;;;13041634;22;20012;-81
2022/10/15 10:41:08;;;;;;;2.35;1.38;;;;;;;;;;13043995;22;20086;-81
2022/10/15 10:46:13;;;;;;;1.73;1.00;;;;;;;;;;13056218;22;20348;-81
2022/10/15 10:51:14;;;;;;;3.42;1.30;;;;;;;;;;13085313;22;19995;-82
2022/10/15 10:56:17;;;;;;;3.42;2.33;;;;;;;;;;13062936;22;20387;-82
2022/10/15 11:01:18;;;;;;;2.70;1.10;;;;;;;;;;13076124;22;20018;-82
2022/10/15 11:06:34;;;;;;;1.92;1.10;;;;;;;;;;13070409;22;20122;-81
2022/10/15 11:11:48;;;;;;;3.42;1.10;;;;;;;;;;13048510;22;20327;-82
2022/10/15 11:16:53;;;;;;;1.30;0.80;;;;;;;;;;13051150;22;20015;-81
2022/10/15 11:22:13;;;;;;;1.48;1.00;;;;;;;;;;13046801;22;20503;-82
2022/10/15 11:27:21;;;;;;;2.33;1.10;;;;;;;;;;13042785;22;20065;-82
2022/10/15 11:32:41;;;;;;;1.40;1.00;;;;;;;;;;13038938;22;20003;-82
2022/10/15 11:37:49;;;;;;;4.78;1.10;;;;;;;;;;13041560;22;20077;-82
2022/10/15 11:42:55;;;;;;;1.35;0.70;;;;;;;;;;13040574;22;20090;-81
2022/10/15 11:48:00;;;;;;;1.63;0.93;;;;;;;;;;13029722;22;20012;-84
2022/10/15 13:59:58;;;;;;;2.10;1.20;;;;;;;;;;12905534;22;20020;-83
2022/10/15 14:05:15;;;;;;;1.90;1.10;;;;;;;;;;13034104;22;20090;-83
2022/10/15 14:10:16;;;;;;;1.75;1.30;;;;;;;;;;13034728;22;20010;-83
2022/10/15 14:15:36;;;;;;;3.25;2.53;;;;;;;;;;13038596;22;20014;-83
2022/10/15 14:20:37;;;;;;;1.57;1.00;;;;;;;;;;13024900;22;20000;-81
2022/10/15 14:25:38;;;;;;;1.17;0.90;;;;;;;;;;13040012;22;20003;-83
2022/10/15 14:30:43;;;;;;;0.82;0.80;;;;;;;;;;13036872;22;20134;-83
2022/10/15 14:35:44;;;;;;;2.00;1.50;;;;;;;;;;13038139;22;20011;-84
2022/10/15 14:41:01;;;;;;;4.15;2.67;;;;;;;;;;13037322;22;20004;-83
2022/10/15 14:46:04;;;;;;;5.35;1.80;;;;;;;;;;13035567;22;20110;-84
2022/10/15 14:51:06;;;;;;;2.72;1.10;;;;;;;;;;13006750;22;19999;-84
2022/10/15 14:56:16;;;;;;;3.10;1.33;;;;;;;;;;13031587;22;20007;-83
2022/10/15 15:01:18;;;;;;;3.95;1.55;;;;;;;;;;13029201;22;20011;-82
2022/10/15 15:06:19;;;;;;;2.10;1.50;;;;;;;;;;13027191;22;20038;-83
2022/10/15 15:11:22;;;;;;;4.43;1.33;;;;;;;;;;13027414;22;20000;-82
2022/10/15 15:16:23;;;;;;;4.53;1.70;;;;;;;;;;13026131;22;20457;-83
2022/10/15 15:21:24;;;;;;;2.58;1.50;;;;;;;;;;13001329;22;20007;-83
2022/10/15 15:26:25;;;;;;;2.20;1.45;;;;;;;;;;13026493;22;20040;-83
2022/10/15 15:31:27;;;;;;;2.05;1.30;;;;;;;;;;13037996;22;20051;-82
2022/10/15 15:36:28;;;;;;;2.88;1.75;;;;;;;;;;13040766;22;20091;-83
2022/10/15 15:41:29;;;;;;;2.92;1.63;;;;;;;;;;13050037;22;20006;-81
2022/10/15 15:46:30;;;;;;;2.83;1.50;;;;;;;;;;13058771;22;20015;-83
2022/10/15 15:51:32;;;;;;;2.92;1.80;;;;;;;;;;13029183;22;20023;-83
2022/10/15 15:56:33;;;;;;;2.50;1.50;;;;;;;;;;13029815;22;20008;-83
2022/10/15 16:01:34;;;;;;;2.65;1.10;;;;;;;;;;13029950;22;20081;-84
2022/10/15 16:06:37;;;;;;;1.95;1.30;;;;;;;;;;13030404;22;20023;-84
2022/10/15 16:11:38;;;;;;;2.30;1.50;;;;;;;;;;13032858;22;20051;-84
2022/10/15 16:16:40;;;;;;;6.35;2.67;;;;;;;;;;13001281;22;20011;-84
2022/10/15 16:21:41;;;;;;;2.38;1.92;;;;;;;;;;13026596;22;20023;-82
2022/10/15 16:26:42;;;;;;;3.40;2.10;;;;;;;;;;13026694;22;20317;-83
2022/10/15 16:31:43;;;;;;;4.00;2.13;;;;;;;;;;13002806;22;20305;-83
2022/10/15 16:36:44;;;;;;;2.05;1.40;;;;;;;;;;13004609;22;20024;-83
2022/10/15 16:41:45;;;;;;;2.70;2.30;;;;;;;;;;13028743;22;20016;-83
2022/10/15 16:46:46;;;;;;;2.75;2.03;;;;;;;;;;13030519;22;20008;-83
2022/10/15 16:51:47;;;;;;;2.55;2.10;;;;;;;;;;13029733;22;20035;-84
2022/10/15 16:56:50;;;;;;;2.00;1.50;;;;;;;;;;13028397;22;20003;-82
2022/10/15 17:01:51;;;;;;;1.77;1.10;;;;;;;;;;13002155;22;20012;-83
2022/10/15 17:06:52;;;;;;;0.70;0.70;;;;;;;;;;13026572;22;20014;-82
2022/10/15 17:11:53;;;;;;;1.10;0.90;;;;;;;;;;13026515;22;20454;-82
2022/10/15 17:16:54;;;;;;;1.20;0.88;;;;;;;;;;13029265;22;20011;-82
2022/10/15 17:21:56;;;;;;;1.40;1.13;;;;;;;;;;13029847;22;20016;-82
2022/10/15 17:26:57;;;;;;;2.95;1.33;;;;;;;;;;13054674;22;20019;-84
2022/10/15 17:31:58;;;;;;;1.42;1.20;;;;;;;;;;13006849;22;20000;-83
2022/10/15 17:36:59;;;;;;;1.92;1.15;;;;;;;;;;13002349;22;20012;-81
2022/10/15 17:42:00;;;;;;;1.45;1.27;;;;;;;;;;13017752;22;20011;-81
2022/10/15 17:47:02;;;;;;;2.72;1.77;;;;;;;;;;13017614;22;20030;-81
2022/10/15 17:52:03;;;;;;;1.70;1.17;;;;;;;;;;13021082;22;19999;-81
2022/10/15 17:57:04;;;;;;;3.67;2.35;;;;;;;;;;13022171;22;20022;-82
2022/10/15 18:02:05;;;;;;;4.72;2.60;;;;;;;;;;13018150;22;20008;-82
2022/10/15 18:07:06;;;;;;;2.95;2.00;;;;;;;;;;13019463;22;20015;-81
2022/10/15 18:12:07;;;;;;;1.70;1.38;;;;;;;;;;13018061;22;20006;-81
2022/10/15 18:17:17;;;;;;;3.90;1.40;;;;;;;;;;13020171;22;20008;-81
2022/10/15 18:22:19;;;;;;;1.63;1.40;;;;;;;;;;12998280;22;20007;-81
2022/10/15 18:27:20;;;;;;;5.93;5.40;;;;;;;;;;13019774;22;20003;-84
2022/10/15 18:32:21;;;;;;;2.38;1.40;;;;;;;;;;13015564;22;20570;-82
2022/10/15 18:37:22;;;;;;;1.85;1.27;;;;;;;;;;13019335;22;20335;-82
2022/10/15 18:42:23;;;;;;;1.73;1.60;;;;;;;;;;12993116;22;20000;-82
2022/10/15 18:47:24;;;;;;;1.95;1.67;;;;;;;;;;13018432;22;19999;-83
2022/10/15 18:52:25;;;;;;;2.20;1.50;;;;;;;;;;12995754;22;20004;-81
2022/10/15 18:57:26;;;;;;;2.63;1.85;;;;;;;;;;13020336;22;20444;-82
2022/10/15 19:02:27;;;;;;;3.20;1.70;;;;;;;;;;13021656;22;20095;-82
2022/10/15 19:07:28;;;;;;;2.10;1.50;;;;;;;;;;13029642;22;20004;-82
2022/10/15 19:12:29;;;;;;;2.47;2.00;;;;;;;;;;13030888;22;20004;-82
2022/10/15 19:17:32;;;;;;;2.63;1.80;;;;;;;;;;13031139;22;20018;-82
2022/10/15 19:22:34;;;;;;;2.90;2.00;;;;;;;;;;13039281;22;20416;-82
